createdAt,value
2019-05-30T00:00:09.971Z,100959
2019-05-30T00:00:56.842Z,100963
2019-05-30T00:01:57.013Z,100958
2019-05-30T00:02:57.138Z,100961
2019-05-30T00:03:57.003Z,100956
2019-05-30T00:04:57.031Z,100957
2019-05-30T00:05:57.076Z,100962
2019-05-30T00:06:57.278Z,100957
2019-05-30T00:07:57.079Z,100960
2019-05-30T00:08:57.278Z,100955
2019-05-30T00:09:57.301Z,100957
2019-05-30T00:10:57.337Z,100953
2019-05-30T00:11:57.378Z,100956
2019-05-30T00:12:57.430Z,100952
2019-05-30T00:13:57.446Z,100957
2019-05-30T00:14:57.496Z,100955
2019-05-30T00:15:57.535Z,100951
2019-05-30T00:16:57.546Z,100955
2019-05-30T00:17:57.522Z,100951
2019-05-30T00:18:57.563Z,100950
2019-05-30T00:19:57.577Z,100952
2019-05-30T00:20:57.577Z,100951
2019-05-30T00:21:57.580Z,100952
2019-05-30T00:22:57.625Z,100954
2019-05-30T00:23:58.747Z,100953
2019-05-30T00:24:58.910Z,100950
2019-05-30T00:25:57.991Z,100954
2019-05-30T00:26:59.015Z,100954
2019-05-30T00:27:58.064Z,100955
2019-05-30T00:28:59.120Z,100960
2019-05-30T00:29:58.202Z,100957
2019-05-30T00:30:59.262Z,100960
2019-05-30T00:31:58.325Z,100962
2019-05-30T00:32:59.416Z,100962
2019-05-30T00:33:58.457Z,100963
2019-05-30T00:34:58.505Z,100965
2019-05-30T00:35:58.571Z,100961
2019-05-30T00:36:58.582Z,100962
2019-05-30T00:37:58.567Z,100960
2019-05-30T00:38:58.621Z,100957
2019-05-30T00:39:58.709Z,100953
2019-05-30T00:40:58.757Z,100958
2019-05-30T00:41:58.804Z,100955
2019-05-30T00:42:58.825Z,100962
2019-05-30T00:43:58.811Z,100958
2019-05-30T00:44:58.808Z,100962
2019-05-30T00:45:58.912Z,100962
2019-05-30T00:46:59.270Z,100958
2019-05-30T00:47:58.970Z,100958
2019-05-30T00:48:59.057Z,100957
2019-05-30T00:49:59.052Z,100965
2019-05-30T00:50:59.256Z,100961
2019-05-30T00:51:59.316Z,100957
2019-05-30T00:52:59.567Z,100958
2019-05-30T00:53:59.408Z,100957
2019-05-30T00:54:59.432Z,100961
2019-05-30T00:55:59.433Z,100960
2019-05-30T00:56:59.476Z,100962
2019-05-30T00:57:59.490Z,100959
2019-05-30T00:58:59.490Z,100951
2019-05-30T00:59:59.550Z,100955
2019-05-30T01:00:59.612Z,100955
2019-05-30T01:01:59.554Z,100956
2019-05-30T01:03:01.597Z,100955
2019-05-30T01:03:59.661Z,100951
2019-05-30T01:04:59.695Z,100948
2019-05-30T01:05:59.693Z,100950
2019-05-30T01:06:59.731Z,100949
2019-05-30T01:07:59.725Z,100948
2019-05-30T01:08:59.764Z,100952
2019-05-30T01:09:59.777Z,100951
2019-05-30T01:10:59.819Z,100945
2019-05-30T01:11:59.844Z,100947
2019-05-30T01:13:00.135Z,100946
2019-05-30T01:13:59.896Z,100948
2019-05-30T01:14:59.889Z,100949
2019-05-30T01:15:59.858Z,100946
2019-05-30T01:16:59.878Z,100946
2019-05-30T01:17:59.883Z,100946
2019-05-30T01:18:59.914Z,100947
2019-05-30T01:19:59.961Z,100951
2019-05-30T01:20:59.993Z,100947
2019-05-30T01:22:00.013Z,100948
2019-05-30T01:23:00.030Z,100945
2019-05-30T01:24:00.063Z,100947
2019-05-30T01:25:00.066Z,100948
2019-05-30T01:26:00.097Z,100951
2019-05-30T01:27:00.113Z,100951
2019-05-30T01:28:00.275Z,100954
2019-05-30T01:29:00.277Z,100951
2019-05-30T01:30:00.300Z,100955
2019-05-30T01:31:05.431Z,100950
2019-05-30T01:32:00.330Z,100949
2019-05-30T01:33:00.528Z,100952
2019-05-30T01:34:00.407Z,100954
2019-05-30T01:35:00.442Z,100955
2019-05-30T01:36:00.461Z,100955
2019-05-30T01:37:00.473Z,100950
2019-05-30T01:38:00.555Z,100952
2019-05-30T01:39:00.599Z,100949
2019-05-30T01:40:00.624Z,100953
2019-05-30T01:41:00.640Z,100950
2019-05-30T01:42:00.700Z,100949
2019-05-30T01:43:00.814Z,100948
2019-05-30T01:44:00.802Z,100950
2019-05-30T01:45:00.873Z,100946
2019-05-30T01:46:00.936Z,100943
2019-05-30T01:47:00.919Z,100946
2019-05-30T01:48:01.038Z,100948
2019-05-30T01:49:01.084Z,100946
2019-05-30T01:50:01.131Z,100942
2019-05-30T01:51:01.204Z,100941
2019-05-30T01:52:01.258Z,100946
2019-05-30T01:53:01.380Z,100941
2019-05-30T01:54:01.380Z,100943
2019-05-30T01:55:01.406Z,100941
2019-05-30T01:56:01.489Z,100942
2019-05-30T01:57:01.511Z,100941
2019-05-30T01:58:01.818Z,100937
2019-05-30T01:59:01.540Z,100939
2019-05-30T02:00:02.311Z,100937
2019-05-30T02:01:16.685Z,100933
2019-05-30T02:02:01.701Z,100935
2019-05-30T02:03:01.730Z,100928
2019-05-30T02:04:01.817Z,100933
2019-05-30T02:05:01.835Z,100931
2019-05-30T02:06:01.866Z,100935
2019-05-30T02:07:01.916Z,100933
2019-05-30T02:08:02.017Z,100928
2019-05-30T02:09:02.065Z,100931
2019-05-30T02:10:02.155Z,100931
2019-05-30T02:11:02.131Z,100934
2019-05-30T02:12:02.311Z,100931
2019-05-30T02:13:02.227Z,100936
2019-05-30T02:14:02.312Z,100935
2019-05-30T02:15:02.324Z,100929
2019-05-30T02:16:02.420Z,100931
2019-05-30T02:17:02.428Z,100929
2019-05-30T02:18:02.437Z,100932
2019-05-30T02:19:02.495Z,100932
2019-05-30T02:20:02.535Z,100927
2019-05-30T02:21:02.607Z,100929
2019-05-30T02:22:02.620Z,100926
2019-05-30T02:23:03.964Z,100926
2019-05-30T02:24:02.739Z,100929
2019-05-30T02:25:02.822Z,100930
2019-05-30T02:26:02.916Z,100928
2019-05-30T02:27:02.935Z,100930
2019-05-30T02:28:03.002Z,100932
2019-05-30T02:29:03.038Z,100930
2019-05-30T02:30:03.881Z,100931
2019-05-30T02:31:03.429Z,100927
2019-05-30T02:32:03.458Z,100932
2019-05-30T02:33:03.518Z,100930
2019-05-30T02:34:03.536Z,100931
2019-05-30T02:35:03.720Z,100934
2019-05-30T02:36:03.921Z,100935
2019-05-30T02:37:03.787Z,100935
2019-05-30T02:38:03.607Z,100937
2019-05-30T02:39:03.479Z,100937
2019-05-30T02:40:05.772Z,100936
2019-05-30T02:41:03.744Z,100936
2019-05-30T02:42:03.693Z,100939
2019-05-30T02:43:04.031Z,100938
2019-05-30T02:44:03.583Z,100937
2019-05-30T02:45:03.968Z,100938
2019-05-30T02:46:04.015Z,100942
2019-05-30T02:47:03.990Z,100937
2019-05-30T02:48:03.831Z,100941
2019-05-30T02:49:04.861Z,100935
2019-05-30T02:50:04.349Z,100940
2019-05-30T02:51:03.808Z,100942
2019-05-30T02:52:05.286Z,100945
2019-05-30T02:53:04.221Z,100939
2019-05-30T02:54:04.504Z,100936
2019-05-30T02:55:04.255Z,100945
2019-05-30T02:56:04.219Z,100943
2019-05-30T02:57:04.082Z,100946
2019-05-30T02:58:04.240Z,100948
2019-05-30T02:59:04.275Z,100945
2019-05-30T03:00:05.177Z,100937
2019-05-30T03:01:04.390Z,100944
2019-05-30T03:02:06.765Z,100944
2019-05-30T03:03:04.391Z,100944
2019-05-30T03:04:04.540Z,100943
2019-05-30T03:05:04.572Z,100942
2019-05-30T03:06:04.487Z,100941
2019-05-30T03:07:04.528Z,100946
2019-05-30T03:08:04.836Z,100945
2019-05-30T03:09:04.294Z,100943
2019-05-30T03:10:05.025Z,100948
2019-05-30T03:11:04.999Z,100947
2019-05-30T03:12:04.605Z,100950
2019-05-30T03:13:04.622Z,100948
2019-05-30T03:14:04.889Z,100952
2019-05-30T03:15:05.131Z,100950
2019-05-30T03:16:04.977Z,100951
2019-05-30T03:17:05.234Z,100954
2019-05-30T03:18:05.233Z,100950
2019-05-30T03:19:04.659Z,100954
2019-05-30T03:20:11.722Z,100956
2019-05-30T03:21:06.313Z,100951
2019-05-30T03:22:05.149Z,100955
2019-05-30T03:23:05.701Z,100952
2019-05-30T03:24:05.530Z,100952
2019-05-30T03:25:05.577Z,100951
2019-05-30T03:26:05.430Z,100953
2019-05-30T03:27:05.289Z,100958
2019-05-30T03:28:05.689Z,100951
2019-05-30T03:29:05.510Z,100955
2019-05-30T03:30:09.366Z,100949
2019-05-30T03:31:10.095Z,100950
2019-05-30T03:32:38.451Z,100953
2019-05-30T03:33:18.450Z,100959
2019-05-30T03:34:09.848Z,100961
2019-05-30T03:35:10.537Z,100963
2019-05-30T03:36:10.710Z,100962
2019-05-30T03:37:10.202Z,100957
2019-05-30T03:38:06.158Z,100966
2019-05-30T03:39:05.931Z,100969
2019-05-30T03:40:21.170Z,100967
2019-05-30T03:41:07.387Z,100966
2019-05-30T03:42:07.429Z,100964
2019-05-30T03:43:06.633Z,100964
2019-05-30T03:44:06.583Z,100970
2019-05-30T03:45:06.705Z,100974
2019-05-30T03:46:06.679Z,100972
2019-05-30T03:47:06.702Z,100968
2019-05-30T03:48:07.117Z,100969
2019-05-30T03:49:07.019Z,100976
2019-05-30T03:50:07.246Z,100976
2019-05-30T03:51:06.833Z,100979
2019-05-30T03:52:07.963Z,100972
2019-05-30T03:53:07.309Z,100973
2019-05-30T03:54:07.583Z,100978
2019-05-30T03:55:07.410Z,100977
2019-05-30T03:56:07.259Z,100971
2019-05-30T03:57:07.283Z,100968
2019-05-30T03:58:08.492Z,100974
2019-05-30T03:59:08.589Z,100973
2019-05-30T04:00:09.183Z,100982
2019-05-30T04:01:08.628Z,100971
2019-05-30T04:02:09.419Z,100974
2019-05-30T04:03:09.733Z,100975
2019-05-30T04:04:09.753Z,100967
2019-05-30T04:05:09.607Z,100967
2019-05-30T04:06:10.043Z,100966
2019-05-30T04:07:09.489Z,100970
2019-05-30T04:08:09.887Z,100968
2019-05-30T04:09:10.228Z,100973
2019-05-30T04:10:09.630Z,100971
2019-05-30T04:11:10.306Z,100967
2019-05-30T04:12:10.528Z,100968
2019-05-30T04:13:10.261Z,100967
2019-05-30T04:14:09.368Z,100966
2019-05-30T04:15:10.529Z,100969
2019-05-30T04:16:09.217Z,100969
2019-05-30T04:17:11.064Z,100965
2019-05-30T04:18:10.042Z,100967
2019-05-30T04:19:10.523Z,100969
2019-05-30T04:20:09.782Z,100971
2019-05-30T04:21:11.398Z,100974
2019-05-30T04:22:09.879Z,100972
2019-05-30T04:23:11.171Z,100977
2019-05-30T04:24:10.149Z,100980
2019-05-30T04:25:11.007Z,100971
2019-05-30T04:26:10.085Z,100975
2019-05-30T04:27:10.427Z,100976
2019-05-30T04:28:10.301Z,100973
2019-05-30T04:29:10.417Z,100970
2019-05-30T04:30:10.542Z,100971
2019-05-30T04:31:10.709Z,100972
2019-05-30T04:32:10.852Z,100974
2019-05-30T04:33:19.009Z,100976
2019-05-30T04:34:10.845Z,100969
2019-05-30T04:35:10.882Z,100976
2019-05-30T04:36:11.036Z,100976
2019-05-30T04:37:11.126Z,100975
2019-05-30T04:38:11.091Z,100980
2019-05-30T04:39:11.600Z,100977
2019-05-30T04:40:11.691Z,100980
2019-05-30T04:41:11.653Z,100980
2019-05-30T04:42:11.884Z,100983
2019-05-30T04:43:11.862Z,100976
2019-05-30T04:44:12.221Z,100978
2019-05-30T04:45:12.168Z,100980
2019-05-30T04:46:12.581Z,100984
2019-05-30T04:47:12.635Z,100984
2019-05-30T04:48:12.494Z,100982
2019-05-30T04:49:12.685Z,100974
2019-05-30T04:50:12.698Z,100985
2019-05-30T04:51:12.923Z,100990
2019-05-30T04:52:16.167Z,100985
2019-05-30T04:53:12.619Z,100981
2019-05-30T04:54:12.965Z,100981
2019-05-30T04:55:13.408Z,100977
2019-05-30T04:56:13.105Z,100977
2019-05-30T04:57:13.153Z,100980
2019-05-30T04:58:13.667Z,100972
2019-05-30T04:59:13.403Z,100977
2019-05-30T05:00:13.606Z,100976
2019-05-30T05:01:13.664Z,100973
2019-05-30T05:02:14.104Z,100979
2019-05-30T05:03:13.825Z,100980
2019-05-30T05:04:13.966Z,100975
2019-05-30T05:05:17.888Z,100990
2019-05-30T05:06:14.251Z,100982
2019-05-30T05:07:14.225Z,100983
2019-05-30T05:08:14.351Z,100986
2019-05-30T05:09:14.514Z,100990
2019-05-30T05:10:14.571Z,100992
2019-05-30T05:11:17.032Z,100989
2019-05-30T05:12:14.763Z,100986
2019-05-30T05:13:14.883Z,100986
2019-05-30T05:14:14.993Z,100989
2019-05-30T05:15:15.109Z,100991
2019-05-30T05:16:25.703Z,100987
2019-05-30T05:17:15.410Z,100985
2019-05-30T05:18:15.504Z,100982
2019-05-30T05:19:15.681Z,100984
2019-05-30T05:20:15.797Z,100982
2019-05-30T05:21:15.705Z,100986
2019-05-30T05:22:15.878Z,100983
2019-05-30T05:23:15.993Z,100979
2019-05-30T05:24:16.122Z,100986
2019-05-30T05:25:16.253Z,100984
2019-05-30T05:26:16.333Z,100984
2019-05-30T05:27:16.515Z,100989
2019-05-30T05:28:16.620Z,100985
2019-05-30T05:29:16.734Z,100988
2019-05-30T05:30:16.894Z,100989
2019-05-30T05:31:17.194Z,100991
2019-05-30T05:32:17.112Z,100984
2019-05-30T05:33:17.347Z,100986
2019-05-30T05:34:17.420Z,100981
2019-05-30T05:35:17.576Z,100983
2019-05-30T05:36:17.711Z,100991
2019-05-30T05:37:17.845Z,100988
2019-05-30T05:38:18.986Z,100993
2019-05-30T05:39:18.981Z,100988
2019-05-30T05:40:19.023Z,100990
2019-05-30T05:41:19.000Z,100984
2019-05-30T05:42:19.007Z,100983
2019-05-30T05:43:19.166Z,100981
2019-05-30T05:44:19.249Z,100981
2019-05-30T05:45:19.266Z,100984
2019-05-30T05:46:19.268Z,100985
2019-05-30T05:47:19.286Z,100984
2019-05-30T05:48:19.310Z,100985
2019-05-30T05:49:19.329Z,100983
2019-05-30T05:50:19.274Z,100984
2019-05-30T05:51:19.491Z,100983
2019-05-30T05:52:19.623Z,100983
2019-05-30T05:53:19.669Z,100993
2019-05-30T05:54:19.662Z,100990
2019-05-30T05:55:19.664Z,100988
2019-05-30T05:56:19.714Z,100992
2019-05-30T05:57:19.698Z,100990
2019-05-30T05:58:19.720Z,100992
2019-05-30T05:59:19.774Z,100990
2019-05-30T06:00:19.824Z,100990
2019-05-30T06:01:19.931Z,100999
2019-05-30T06:02:19.904Z,100995
2019-05-30T06:03:19.154Z,100997
2019-05-30T06:04:19.974Z,100998
2019-05-30T06:05:18.991Z,100995
2019-05-30T06:06:20.149Z,100998
2019-05-30T06:07:19.171Z,100997
2019-05-30T06:08:20.252Z,100997
2019-05-30T06:09:19.383Z,101004
2019-05-30T06:10:20.430Z,101005
2019-05-30T06:11:19.402Z,101000
2019-05-30T06:12:20.553Z,101012
2019-05-30T06:13:19.546Z,101008
2019-05-30T06:14:20.649Z,101009
2019-05-30T06:15:19.677Z,101008
2019-05-30T06:16:20.818Z,101009
2019-05-30T06:17:19.818Z,101008
2019-05-30T06:18:20.996Z,101008
2019-05-30T06:19:19.945Z,101008
2019-05-30T06:20:20.095Z,101011
2019-05-30T06:21:20.203Z,101007
2019-05-30T06:22:20.354Z,101007
2019-05-30T06:23:20.322Z,101014
2019-05-30T06:24:20.424Z,101012
2019-05-30T06:25:22.187Z,101008
2019-05-30T06:26:20.769Z,101008
2019-05-30T06:27:20.779Z,101016
2019-05-30T06:28:20.913Z,101018
2019-05-30T06:29:21.008Z,101013
2019-05-30T06:30:21.111Z,101019
2019-05-30T06:31:21.263Z,101019
2019-05-30T06:32:21.371Z,101018
2019-05-30T06:33:21.497Z,101029
2019-05-30T06:34:32.174Z,101021
2019-05-30T06:35:21.791Z,101025
2019-05-30T06:36:21.867Z,101027
2019-05-30T06:37:21.984Z,101026
2019-05-30T06:38:22.070Z,101030
2019-05-30T06:39:22.230Z,101027
2019-05-30T06:40:22.290Z,101030
2019-05-30T06:41:22.469Z,101026
2019-05-30T06:42:22.586Z,101032
2019-05-30T06:43:22.754Z,101028
2019-05-30T06:44:22.844Z,101030
2019-05-30T06:45:23.993Z,101027
2019-05-30T06:46:23.016Z,101029
2019-05-30T06:47:23.163Z,101031
2019-05-30T06:48:23.288Z,101032
2019-05-30T06:49:23.428Z,101033
2019-05-30T06:50:23.537Z,101031
2019-05-30T06:51:23.658Z,101029
2019-05-30T06:52:23.797Z,101030
2019-05-30T06:53:23.956Z,101037
2019-05-30T06:54:24.612Z,101035
2019-05-30T06:55:23.962Z,101035
2019-05-30T06:56:24.137Z,101033
2019-05-30T06:57:24.153Z,101043
2019-05-30T06:58:41.246Z,101034
2019-05-30T06:59:24.440Z,101039
2019-05-30T07:00:24.580Z,101042
2019-05-30T07:01:24.707Z,101043
2019-05-30T07:02:25.043Z,101039
2019-05-30T07:03:25.113Z,101041
2019-05-30T07:04:25.830Z,101049
2019-05-30T07:05:26.072Z,101036
2019-05-30T07:06:25.789Z,101039
2019-05-30T07:07:25.715Z,101048
2019-05-30T07:08:25.547Z,101042
2019-05-30T07:09:25.607Z,101042
2019-05-30T07:10:25.652Z,101040
2019-05-30T07:11:25.695Z,101045
2019-05-30T07:12:26.297Z,101047
2019-05-30T07:13:25.977Z,101043
2019-05-30T07:14:26.041Z,101049
2019-05-30T07:15:26.070Z,101050
2019-05-30T07:16:26.191Z,101049
2019-05-30T07:17:26.255Z,101053
2019-05-30T07:18:26.302Z,101048
2019-05-30T07:19:26.303Z,101059
2019-05-30T07:20:26.410Z,101058
2019-05-30T07:21:26.497Z,101057
2019-05-30T07:22:26.513Z,101069
2019-05-30T07:23:26.645Z,101065
2019-05-30T07:24:26.603Z,101061
2019-05-30T07:25:26.661Z,101063
2019-05-30T07:26:26.669Z,101060
2019-05-30T07:27:26.714Z,101057
2019-05-30T07:28:26.767Z,101066
2019-05-30T07:29:26.798Z,101070
2019-05-30T07:30:26.778Z,101065
2019-05-30T07:31:26.819Z,101071
2019-05-30T07:32:26.824Z,101083
2019-05-30T07:33:26.868Z,101079
2019-05-30T07:34:26.906Z,101079
2019-05-30T07:35:26.875Z,101082
2019-05-30T07:36:27.074Z,101081
2019-05-30T07:37:27.055Z,101077
2019-05-30T07:38:27.303Z,101082
2019-05-30T07:39:29.679Z,101078
2019-05-30T07:40:27.485Z,101084
2019-05-30T07:41:27.533Z,101088
2019-05-30T07:42:27.529Z,101090
2019-05-30T07:43:28.613Z,101086
2019-05-30T07:44:27.612Z,101090
2019-05-30T07:45:27.806Z,101091
2019-05-30T07:46:27.825Z,101093
2019-05-30T07:47:28.870Z,101089
2019-05-30T07:48:29.021Z,101093
2019-05-30T07:49:29.113Z,101084
2019-05-30T07:50:29.223Z,101091
2019-05-30T07:51:29.411Z,101096
2019-05-30T07:52:29.459Z,101102
2019-05-30T07:53:29.588Z,101096
2019-05-30T07:54:29.722Z,101094
2019-05-30T07:55:29.817Z,101100
2019-05-30T07:56:29.904Z,101091
2019-05-30T07:57:29.014Z,101100
2019-05-30T07:58:30.060Z,101099
2019-05-30T07:59:29.173Z,101099
2019-05-30T08:00:30.205Z,101102
2019-05-30T08:01:29.286Z,101097
2019-05-30T08:02:30.381Z,101097
2019-05-30T08:03:29.337Z,101097
2019-05-30T08:04:30.427Z,101098
2019-05-30T08:05:29.497Z,101096
2019-05-30T08:06:30.504Z,101101
2019-05-30T08:07:29.561Z,101099
2019-05-30T08:08:30.731Z,101094
2019-05-30T08:09:29.721Z,101097
2019-05-30T08:10:30.769Z,101098
2019-05-30T08:11:29.805Z,101094
2019-05-30T08:12:30.865Z,101101
2019-05-30T08:13:29.911Z,101103
2019-05-30T08:14:29.936Z,101099
2019-05-30T08:15:30.114Z,101097
2019-05-30T08:16:30.138Z,101101
2019-05-30T08:17:30.345Z,101091
2019-05-30T08:18:30.469Z,101090
2019-05-30T08:19:30.748Z,101100
2019-05-30T08:20:30.570Z,101099
2019-05-30T08:21:31.427Z,101098
2019-05-30T08:22:30.762Z,101100
2019-05-30T08:23:30.967Z,101099
2019-05-30T08:24:31.024Z,101095
2019-05-30T08:25:31.062Z,101094
2019-05-30T08:26:31.005Z,101097
2019-05-30T08:27:31.065Z,101097
2019-05-30T08:28:31.136Z,101092
2019-05-30T08:29:31.084Z,101095
2019-05-30T08:30:31.226Z,101097
2019-05-30T08:31:31.360Z,101091
2019-05-30T08:32:31.387Z,101093
2019-05-30T08:33:32.337Z,101091
2019-05-30T08:34:31.378Z,101089
2019-05-30T08:35:43.227Z,101084
2019-05-30T08:36:31.756Z,101084
2019-05-30T08:37:31.917Z,101080
2019-05-30T08:38:31.959Z,101083
2019-05-30T08:39:31.969Z,101087
2019-05-30T08:40:32.159Z,101084
2019-05-30T08:41:32.100Z,101084
2019-05-30T08:42:32.179Z,101081
2019-05-30T08:43:32.260Z,101086
2019-05-30T08:44:32.573Z,101081
2019-05-30T08:45:32.495Z,101083
2019-05-30T08:46:32.620Z,101082
2019-05-30T08:47:32.750Z,101085
2019-05-30T08:48:33.227Z,101087
2019-05-30T08:49:32.917Z,101084
2019-05-30T08:50:33.061Z,101084
2019-05-30T08:51:33.055Z,101082
2019-05-30T08:52:33.133Z,101078
2019-05-30T08:53:33.142Z,101080
2019-05-30T08:54:33.225Z,101079
2019-05-30T08:55:33.253Z,101075
2019-05-30T08:56:33.377Z,101077
2019-05-30T08:57:33.544Z,101075
2019-05-30T08:58:33.447Z,101071
2019-05-30T08:59:33.343Z,101072
2019-05-30T09:01:38.644Z,101080
2019-05-30T09:02:39.652Z,101080
2019-05-30T09:03:38.841Z,101084
2019-05-30T09:04:38.690Z,101088
2019-05-30T09:05:53.395Z,101083
2019-05-30T09:06:38.874Z,101083
2019-05-30T09:07:38.901Z,101080
2019-05-30T09:08:38.861Z,101072
2019-05-30T09:09:38.987Z,101075
2019-05-30T09:10:39.445Z,101076
2019-05-30T09:11:39.249Z,101080
2019-05-30T09:12:40.839Z,101077
2019-05-30T09:13:39.227Z,101074
2019-05-30T09:14:39.588Z,101088
2019-05-30T09:15:39.784Z,101078
2019-05-30T09:16:48.177Z,101078
2019-05-30T09:17:40.930Z,101078
2019-05-30T09:18:40.215Z,101074
2019-05-30T09:19:40.188Z,101080
2019-05-30T09:20:40.203Z,101076
2019-05-30T09:21:40.183Z,101072
2019-05-30T09:22:40.231Z,101073
2019-05-30T09:23:40.802Z,101081
2019-05-30T09:24:40.847Z,101075
2019-05-30T09:25:40.389Z,101076
2019-05-30T09:26:44.111Z,101081
2019-05-30T09:27:41.215Z,101081
2019-05-30T09:28:41.048Z,101074
2019-05-30T09:29:41.479Z,101072
2019-05-30T09:30:41.508Z,101073
2019-05-30T09:31:41.451Z,101071
2019-05-30T09:32:41.638Z,101069
2019-05-30T09:33:41.347Z,101068
2019-05-30T09:34:41.831Z,101066
2019-05-30T09:35:41.810Z,101070
2019-05-30T09:36:41.630Z,101069
2019-05-30T09:37:42.325Z,101075
2019-05-30T09:38:42.203Z,101074
2019-05-30T09:39:42.154Z,101077
2019-05-30T09:40:42.383Z,101080
2019-05-30T09:41:42.596Z,101081
2019-05-30T09:42:42.962Z,101083
2019-05-30T09:43:43.295Z,101083
2019-05-30T09:44:42.757Z,101083
2019-05-30T09:45:42.818Z,101085
2019-05-30T09:46:43.041Z,101088
2019-05-30T09:47:43.636Z,101093
2019-05-30T09:48:43.577Z,101105
2019-05-30T09:49:43.487Z,101100
2019-05-30T09:50:43.847Z,101094
2019-05-30T09:51:43.973Z,101094
2019-05-30T09:52:43.986Z,101104
2019-05-30T09:53:44.819Z,101109
2019-05-30T09:54:44.780Z,101112
2019-05-30T09:55:44.834Z,101106
2019-05-30T09:56:45.382Z,101108
2019-05-30T09:57:44.558Z,101106
2019-05-30T09:58:44.431Z,101111
2019-05-30T09:59:45.289Z,101113
2019-05-30T10:00:45.270Z,101117
2019-05-30T10:01:44.713Z,101116
2019-05-30T10:02:45.260Z,101121
2019-05-30T10:03:45.123Z,101117
2019-05-30T10:04:45.584Z,101111
2019-05-30T10:05:45.554Z,101115
2019-05-30T10:06:45.322Z,101115
2019-05-30T10:07:45.826Z,101114
2019-05-30T10:08:46.385Z,101113
2019-05-30T10:09:45.940Z,101115
2019-05-30T10:10:46.169Z,101112
2019-05-30T10:11:46.123Z,101116
2019-05-30T10:12:47.267Z,101119
2019-05-30T10:13:47.895Z,101105
2019-05-30T10:14:47.402Z,101108
2019-05-30T10:15:47.335Z,101106
2019-05-30T10:16:50.233Z,101104
2019-05-30T10:17:48.056Z,101102
2019-05-30T10:18:47.662Z,101102
2019-05-30T10:19:47.530Z,101105
2019-05-30T10:20:48.096Z,101103
2019-05-30T10:21:47.784Z,101107
2019-05-30T10:22:48.955Z,101111
2019-05-30T10:23:47.906Z,101104
2019-05-30T10:24:47.888Z,101104
2019-05-30T10:25:48.262Z,101103
2019-05-30T10:26:47.930Z,101107
2019-05-30T10:27:48.766Z,101106
2019-05-30T10:28:48.125Z,101109
2019-05-30T10:29:48.128Z,101102
2019-05-30T10:30:52.131Z,101108
2019-05-30T10:31:47.241Z,101105
2019-05-30T10:32:48.849Z,101110
2019-05-30T10:33:47.875Z,101111
2019-05-30T10:34:48.396Z,101111
2019-05-30T10:35:47.802Z,101110
2019-05-30T10:36:49.137Z,101116
2019-05-30T10:37:47.622Z,101114
2019-05-30T10:38:48.914Z,101113
2019-05-30T10:39:47.806Z,101111
2019-05-30T10:40:49.131Z,101115
2019-05-30T10:41:47.880Z,101108
2019-05-30T10:42:49.530Z,101109
2019-05-30T10:43:47.923Z,101112
2019-05-30T10:44:49.776Z,101103
2019-05-30T10:45:48.185Z,101104
2019-05-30T10:46:49.316Z,101109
2019-05-30T10:47:48.068Z,101112
2019-05-30T10:48:49.485Z,101114
2019-05-30T10:49:48.405Z,101115
2019-05-30T10:50:49.127Z,101118
2019-05-30T10:51:48.250Z,101117
2019-05-30T10:52:48.167Z,101115
2019-05-30T10:53:48.957Z,101121
2019-05-30T10:54:48.238Z,101117
2019-05-30T10:55:48.707Z,101114
2019-05-30T10:56:48.701Z,101113
2019-05-30T10:57:48.576Z,101115
2019-05-30T10:58:49.322Z,101117
2019-05-30T10:59:49.224Z,101116
2019-05-30T11:00:49.349Z,101119
2019-05-30T11:01:48.936Z,101124
2019-05-30T11:02:49.807Z,101122
2019-05-30T11:03:49.276Z,101120
2019-05-30T11:04:49.366Z,101119
2019-05-30T11:05:49.553Z,101122
2019-05-30T11:08:49.481Z,101127
2019-05-30T11:09:49.360Z,101122
2019-05-30T11:10:49.445Z,101124
2019-05-30T11:11:49.542Z,101126
2019-05-30T11:12:50.508Z,101126
2019-05-30T11:13:49.910Z,101130
2019-05-30T11:14:50.175Z,101129
2019-05-30T11:15:50.273Z,101127
2019-05-30T11:16:50.311Z,101123
2019-05-30T11:17:51.333Z,101128
2019-05-30T11:18:51.332Z,101125
2019-05-30T11:19:50.558Z,101126
2019-05-30T11:20:50.784Z,101131
2019-05-30T11:21:51.222Z,101127
2019-05-30T11:22:51.551Z,101127
2019-05-30T11:23:51.350Z,101131
2019-05-30T11:24:51.234Z,101134
2019-05-30T11:25:51.354Z,101129
2019-05-30T11:26:52.541Z,101130
2019-05-30T11:27:51.501Z,101133
2019-05-30T11:28:51.484Z,101128
2019-05-30T11:29:51.776Z,101122
2019-05-30T11:30:51.535Z,101124
2019-05-30T11:31:51.724Z,101125
2019-05-30T11:32:51.726Z,101122
2019-05-30T11:33:51.702Z,101123
2019-05-30T11:34:51.812Z,101122
2019-05-30T11:35:51.883Z,101120
2019-05-30T11:36:51.899Z,101120
2019-05-30T11:37:51.923Z,101121
2019-05-30T11:38:52.328Z,101118
2019-05-30T11:39:52.038Z,101118
2019-05-30T11:40:52.118Z,101123
2019-05-30T11:41:52.100Z,101120
2019-05-30T11:42:52.117Z,101117
2019-05-30T11:43:52.301Z,101119
2019-05-30T11:44:52.298Z,101118
2019-05-30T11:45:52.372Z,101119
2019-05-30T11:46:52.385Z,101116
2019-05-30T11:47:52.459Z,101119
2019-05-30T11:48:52.478Z,101118
2019-05-30T11:49:52.471Z,101115
2019-05-30T11:50:52.531Z,101120
2019-05-30T11:51:52.550Z,101121
2019-05-30T11:52:52.527Z,101121
2019-05-30T11:53:52.701Z,101126
2019-05-30T11:54:52.775Z,101127
2019-05-30T11:55:52.842Z,101126
2019-05-30T11:56:52.874Z,101123
2019-05-30T11:57:52.874Z,101130
2019-05-30T11:58:52.845Z,101130
2019-05-30T11:59:53.070Z,101130
2019-05-30T12:00:53.420Z,101127
2019-05-30T12:01:53.322Z,101132
2019-05-30T12:02:53.126Z,101137
2019-05-30T12:03:53.245Z,101137
2019-05-30T12:04:53.407Z,101141
2019-05-30T12:05:53.445Z,101138
2019-05-30T12:06:53.478Z,101138
2019-05-30T12:07:53.511Z,101139
2019-05-30T12:08:53.667Z,101141
2019-05-30T12:09:53.692Z,101141
2019-05-30T12:10:53.746Z,101141
2019-05-30T12:11:53.907Z,101138
2019-05-30T12:12:53.953Z,101138
2019-05-30T12:13:54.011Z,101140
2019-05-30T12:14:54.066Z,101140
2019-05-30T12:15:54.098Z,101139
2019-05-30T12:16:54.127Z,101135
2019-05-30T12:17:54.178Z,101136
2019-05-30T12:18:54.610Z,101136
2019-05-30T12:19:54.374Z,101139
2019-05-30T12:20:54.456Z,101138
2019-05-30T12:21:54.494Z,101139
2019-05-30T12:22:54.726Z,101140
2019-05-30T12:23:54.812Z,101135
2019-05-30T12:24:54.738Z,101138
2019-05-30T12:25:54.804Z,101136
2019-05-30T12:26:54.823Z,101140
2019-05-30T12:27:54.883Z,101138
2019-05-30T12:28:54.947Z,101143
2019-05-30T12:29:55.014Z,101141
2019-05-30T12:30:59.848Z,101141
2019-05-30T12:31:57.326Z,101142